Time;durP1;ratioP1;P1;durP2;ratioP2;P2;SDS_P1;SDS_P2;PMS_P1;PMS_P2;Temp;Humidity;BMP_temperature;BMP_pressure;BME280_temperature;BME280_humidity;BME280_pressure;Samples;Min_cycle;Max_cycle;Signal;HPM_P1;HPM_P2
2023/12/02 00:02:16;;;;;;;35.40;13.13;;;;;;;-146.27;79.74;34823.41;5095410;28;20118;-71
2023/12/02 00:04:41;;;;;;;33.15;12.70;;;;;;;-146.27;79.95;34811.50;5098945;28;20031;-70
2023/12/02 00:07:08;;;;;;;30.88;12.80;;;;;;;-146.27;80.01;34793.63;5076989;28;20575;-71
2023/12/02 00:09:34;;;;;;;41.97;14.65;;;;;;;-146.27;80.04;34799.59;5093846;28;20039;-71
2023/12/02 00:12:00;;;;;;;35.47;13.88;;;;;;;-146.27;80.62;34795.63;5102914;28;20349;-71
2023/12/02 00:14:25;;;;;;;41.05;14.85;;;;;;;-146.27;80.48;34696.38;5082445;28;20028;-70
2023/12/02 00:16:50;;;;;;;30.23;13.52;;;;;;;-146.27;80.55;34785.69;5097337;28;20024;-70
2023/12/02 00:19:16;;;;;;;28.58;11.60;;;;;;;-146.27;79.46;34747.97;5107025;28;20020;-70
2023/12/02 00:21:41;;;;;;;35.47;13.05;;;;;;;-146.27;79.16;34763.84;5107185;28;20077;-70
2023/12/02 00:24:07;;;;;;;32.42;12.25;;;;;;;-146.27;79.22;34773.78;5093582;28;20048;-71
2023/12/02 00:26:32;;;;;;;31.33;12.32;;;;;;;-146.27;79.95;34771.81;5096095;28;20508;-71
2023/12/02 00:28:58;;;;;;;33.33;12.50;;;;;;;-146.27;80.58;34763.84;5099435;28;20020;-71
2023/12/02 00:31:23;;;;;;;37.72;14.60;;;;;;;-146.27;79.94;34749.97;5096177;28;20120;-69
2023/12/02 00:33:48;;;;;;;32.72;13.45;;;;;;;-146.27;80.56;34755.91;5094614;28;20036;-70
2023/12/02 00:36:14;;;;;;;39.10;13.50;;;;;;;-146.27;79.29;34747.97;5096008;28;20023;-70
2023/12/02 00:38:39;;;;;;;34.33;14.00;;;;;;;-146.27;79.80;34753.94;5110497;28;20031;-71
2023/12/02 00:41:09;;;;;;;28.73;13.82;;;;;;;-146.27;80.18;34787.69;5098219;28;20035;-70
2023/12/02 00:43:34;;;;;;;37.05;13.10;;;;;;;-146.27;80.87;34730.13;5102548;28;20035;-70
2023/12/02 00:45:59;;;;;;;30.95;12.98;;;;;;;-146.27;80.20;34742.03;5092669;28;20028;-70
2023/12/02 00:48:25;;;;;;;40.78;13.68;;;;;;;-146.27;80.46;34771.81;5092036;28;20024;-71
2023/12/02 00:50:50;;;;;;;33.22;13.20;;;;;;;-146.27;80.72;34749.97;5105506;28;20030;-69
2023/12/02 00:53:15;;;;;;;34.88;13.57;;;;;;;-146.27;79.88;34763.84;5094990;28;20470;-70
2023/12/02 00:55:41;;;;;;;36.20;13.93;;;;;;;-146.27;79.50;34742.03;5094694;28;20105;-70
2023/12/02 00:58:06;;;;;;;44.22;14.35;;;;;;;-146.27;79.65;34732.09;5094772;28;20463;-70
2023/12/02 01:00:31;;;;;;;35.83;12.82;;;;;;;-146.27;80.13;34714.25;5095150;28;20028;-69
2023/12/02 01:02:57;;;;;;;32.85;13.60;;;;;;;-146.27;79.49;34732.09;5094564;28;20023;-71
2023/12/02 01:05:22;;;;;;;36.90;12.45;;;;;;;-146.27;78.83;34747.97;5092506;28;20028;-71
2023/12/02 01:07:47;;;;;;;35.00;14.07;;;;;;;-146.27;79.75;34742.03;5104350;28;20034;-70
2023/12/02 01:10:13;;;;;;;35.22;13.50;;;;;;;-146.27;80.35;34718.22;5076808;28;20067;-69
2023/12/02 01:12:39;;;;;;;34.85;13.90;;;;;;;-146.27;80.42;34726.16;5107970;28;20031;-70
2023/12/02 01:15:05;;;;;;;38.17;14.73;;;;;;;-146.27;81.63;34716.22;5091727;28;20043;-71
2023/12/02 01:17:30;;;;;;;46.53;15.52;;;;;;;-146.27;81.20;34734.09;5092442;28;20020;-70
2023/12/02 01:19:56;;;;;;;36.20;13.25;;;;;;;-146.27;80.80;34720.19;5073929;28;20135;-70
2023/12/02 01:22:21;;;;;;;34.30;13.13;;;;;;;-146.27;80.16;34746.00;5097677;28;20032;-72
2023/12/02 01:24:48;;;;;;;34.42;13.27;;;;;;;-146.27;80.63;34738.06;5097022;28;20043;-71
2023/12/02 01:27:13;;;;;;;33.72;12.45;;;;;;;-146.27;80.42;34708.28;5091825;28;20446;-70
2023/12/02 01:29:38;;;;;;;35.13;14.27;;;;;;;-146.27;80.26;34720.19;5093518;28;20027;-70
2023/12/02 01:32:04;;;;;;;38.50;14.18;;;;;;;-146.27;79.99;34732.09;5089819;28;20034;-70
2023/12/02 01:34:30;;;;;;;39.17;13.43;;;;;;;-146.27;80.42;34720.19;5099369;28;20020;-71
2023/12/02 01:36:55;;;;;;;38.40;16.23;;;;;;;-146.27;80.29;34720.19;5106107;28;20023;-72
2023/12/02 01:39:21;;;;;;;42.58;14.95;;;;;;;-146.27;80.02;34730.13;5092499;28;20088;-72
2023/12/02 01:41:46;;;;;;;29.50;13.80;;;;;;;-146.27;80.21;34732.09;5099439;28;20016;-71
2023/12/02 01:44:12;;;;;;;39.92;15.60;;;;;;;-146.27;79.91;34716.22;5107127;28;20059;-70
2023/12/02 01:46:37;;;;;;;38.78;14.05;;;;;;;-146.27;80.05;34730.13;5092293;28;20097;-70
2023/12/02 01:49:04;;;;;;;40.63;14.25;;;;;;;-146.27;79.86;34728.13;5110633;28;20050;-71
2023/12/02 01:51:29;;;;;;;31.08;14.68;;;;;;;-146.27;79.88;34704.31;5106329;28;20383;-71
2023/12/02 01:53:55;;;;;;;30.33;13.05;;;;;;;-146.27;79.88;34706.31;5099666;28;20145;-71
2023/12/02 01:56:21;;;;;;;37.25;14.20;;;;;;;-146.27;79.66;34714.25;5093361;28;20043;-70
2023/12/02 01:58:47;;;;;;;40.53;14.90;;;;;;;-146.27;79.94;34714.25;5097921;28;20066;-71
2023/12/02 02:01:12;;;;;;;41.65;15.07;;;;;;;-146.27;79.34;34742.03;5086737;28;20051;-71
2023/12/02 02:03:38;;;;;;;32.67;13.50;;;;;;;-146.27;79.53;34728.13;5099800;28;20069;-70
2023/12/02 02:06:04;;;;;;;35.72;15.20;;;;;;;-146.27;79.12;34696.38;5097080;28;20460;-71
2023/12/02 02:08:29;;;;;;;32.40;13.07;;;;;;;-146.27;79.23;34702.34;5100654;28;20039;-70
2023/12/02 02:10:56;;;;;;;39.72;15.80;;;;;;;-146.27;78.79;34730.13;5111897;28;20016;-70
2023/12/02 02:13:21;;;;;;;35.22;13.88;;;;;;;-146.27;78.88;34708.28;5105048;28;20039;-71
2023/12/02 02:15:47;;;;;;;36.90;14.15;;;;;;;-146.27;79.12;34708.28;5092742;28;20047;-70
2023/12/02 02:18:12;;;;;;;38.40;14.90;;;;;;;-146.27;79.87;34724.16;5098431;28;20055;-70
2023/12/02 02:20:37;;;;;;;34.95;13.55;;;;;;;-146.27;79.38;34686.44;5091842;28;20456;-70
2023/12/02 02:23:04;;;;;;;38.40;14.57;;;;;;;-146.27;79.14;34696.38;5093093;28;20049;-70
2023/12/02 02:25:30;;;;;;;36.03;14.77;;;;;;;-146.27;78.74;34710.28;5094369;28;20032;-71
2023/12/02 02:27:55;;;;;;;32.60;12.73;;;;;;;-146.27;78.49;34668.59;5100982;28;20036;-70
2023/12/02 02:30:21;;;;;;;42.08;14.02;;;;;;;-146.27;78.38;34720.19;5106365;28;20357;-70
2023/12/02 02:32:46;;;;;;;31.52;12.10;;;;;;;-146.27;78.56;34718.22;5094742;28;20032;-71
2023/12/02 02:35:12;;;;;;;38.58;14.10;;;;;;;-146.27;78.60;34736.06;5104199;28;20027;-71
2023/12/02 02:37:38;;;;;;;32.38;13.15;;;;;;;-146.27;78.28;34710.28;5099462;28;20084;-71
2023/12/02 02:40:05;;;;;;;34.63;14.13;;;;;;;-146.27;78.35;34696.38;5094998;28;20502;-70
2023/12/02 02:42:31;;;;;;;32.72;13.80;;;;;;;-146.27;78.19;34698.38;5094647;28;20027;-71
2023/12/02 02:44:56;;;;;;;34.55;13.15;;;;;;;-146.27;78.46;34660.66;5091431;28;20020;-70
2023/12/02 02:47:22;;;;;;;32.55;13.43;;;;;;;-146.27;78.38;34700.34;5085695;28;20028;-71
2023/12/02 02:49:47;;;;;;;40.15;13.77;;;;;;;-146.27;78.43;34722.19;5093975;28;20058;-70
2023/12/02 02:52:13;;;;;;;36.40;13.30;;;;;;;-146.27;78.09;34694.38;5100024;28;20455;-70
2023/12/02 02:54:38;;;;;;;35.50;12.88;;;;;;;-146.27;77.78;34732.09;5092112;28;20421;-70
2023/12/02 02:57:05;;;;;;;35.95;13.13;;;;;;;-146.27;77.96;34738.06;5090612;28;20027;-70
2023/12/02 02:59:30;;;;;;;35.70;13.63;;;;;;;-146.27;77.95;34746.00;5093917;28;20028;-71
2023/12/02 03:01:55;;;;;;;35.67;13.30;;;;;;;-146.27;77.70;34755.91;5091411;28;20023;-70
2023/12/02 03:04:21;;;;;;;39.42;13.38;;;;;;;-146.27;77.76;34742.03;5099835;28;20279;-71
2023/12/02 03:06:46;;;;;;;32.53;13.23;;;;;;;-146.27;78.12;34732.09;5090145;28;20024;-71
2023/12/02 03:09:12;;;;;;;27.27;11.88;;;;;;;-146.27;78.13;34747.97;5104604;28;20031;-71
2023/12/02 03:11:37;;;;;;;33.97;13.48;;;;;;;-146.27;77.92;34740.03;5089690;28;20103;-70
2023/12/02 03:14:02;;;;;;;33.65;13.68;;;;;;;-146.27;78.70;34765.84;5091173;28;20036;-70
2023/12/02 03:16:28;;;;;;;31.88;12.95;;;;;;;-146.27;78.57;34789.66;5093456;28;20050;-70
2023/12/02 03:18:53;;;;;;;37.28;13.52;;;;;;;-146.27;79.17;34755.91;5091908;28;20086;-71
2023/12/02 03:21:19;;;;;;;31.58;13.93;;;;;;;-146.27;78.65;34771.81;5090597;28;20067;-70
2023/12/02 03:23:47;;;;;;;34.95;14.93;;;;;;;-146.27;78.74;34777.75;5094095;28;20396;-70
2023/12/02 03:26:13;;;;;;;41.08;14.45;;;;;;;-146.27;79.09;34779.75;5091336;28;20101;-69
2023/12/02 03:28:38;;;;;;;42.20;13.77;;;;;;;-146.27;79.12;34761.88;5106368;27;20441;-71
2023/12/02 03:31:04;;;;;;;37.78;12.80;;;;;;;-146.27;80.22;34757.91;5083398;28;20027;-70
2023/12/02 03:33:29;;;;;;;38.53;14.52;;;;;;;-146.27;80.26;34787.69;5084402;28;20038;-71
2023/12/02 03:35:54;;;;;;;34.05;13.18;;;;;;;-146.27;79.96;34759.88;5100478;28;20023;-71
2023/12/02 03:38:20;;;;;;;33.55;13.13;;;;;;;-146.27;80.25;34744.00;5097844;28;20028;-71
2023/12/02 03:40:45;;;;;;;40.58;15.32;;;;;;;-146.27;79.95;34797.59;5087018;28;20095;-71
2023/12/02 03:43:11;;;;;;;38.60;15.25;;;;;;;-146.27;79.66;34759.88;5092644;28;20111;-71
2023/12/02 03:45:36;;;;;;;30.67;13.52;;;;;;;-146.27;80.25;34771.81;5090283;28;20026;-71
2023/12/02 03:48:02;;;;;;;41.35;15.88;;;;;;;-146.27;79.83;34771.81;5088320;28;20027;-71
2023/12/02 03:50:27;;;;;;;37.17;14.55;;;;;;;-146.27;79.69;34759.88;5093693;28;20020;-71
2023/12/02 03:52:53;;;;;;;38.60;15.70;;;;;;;-146.27;80.59;34791.66;5097907;28;20590;-71
2023/12/02 03:55:19;;;;;;;38.95;14.88;;;;;;;-146.27;80.52;34795.63;5089044;28;20031;-71
2023/12/02 03:57:44;;;;;;;37.03;13.38;;;;;;;-146.27;80.86;34791.66;5095997;28;20487;-71
2023/12/02 04:00:13;;;;;;;42.90;14.15;;;;;;;-146.27;80.81;34823.41;5094353;28;20102;-71
2023/12/02 04:02:39;;;;;;;44.10;14.27;;;;;;;-146.27;81.32;34785.69;5101829;28;20024;-71
2023/12/02 04:05:09;;;;;;;38.75;13.88;;;;;;;-146.27;80.69;34811.50;5093836;28;20399;-71
2023/12/02 04:07:35;;;;;;;34.67;13.65;;;;;;;-146.27;80.72;34781.72;5103970;28;20055;-70
2023/12/02 04:10:02;;;;;;;33.85;14.18;;;;;;;-146.27;80.83;34773.78;5100899;28;20031;-70
2023/12/02 04:12:28;;;;;;;44.63;15.60;;;;;;;-146.27;80.30;34769.81;5093530;28;20421;-69
2023/12/02 04:14:55;;;;;;;38.35;14.27;;;;;;;-146.27;80.26;34771.81;5090187;28;20026;-70
2023/12/02 04:17:21;;;;;;;36.53;15.27;;;;;;;-146.27;81.67;34779.75;5104436;28;20036;-70
2023/12/02 04:19:47;;;;;;;38.13;15.38;;;;;;;-146.27;80.96;34789.66;5095005;28;20024;-69
2023/12/02 04:22:12;;;;;;;46.90;15.63;;;;;;;-146.27;80.04;34769.81;5098676;28;20879;-71
2023/12/02 04:24:39;;;;;;;46.00;15.95;;;;;;;-146.27;79.36;34823.41;5090738;28;20048;-71
2023/12/02 04:27:05;;;;;;;37.85;15.65;;;;;;;-146.27;79.56;34819.44;5091366;28;20044;-69
2023/12/02 04:29:31;;;;;;;40.13;15.25;;;;;;;-146.27;79.76;34801.56;5093271;28;20556;-71
2023/12/02 04:31:57;;;;;;;32.85;14.07;;;;;;;-146.27;79.28;34845.25;5103470;28;20110;-69
2023/12/02 04:34:23;;;;;;;43.00;14.10;;;;;;;-146.27;79.88;34819.44;5102023;28;20111;-69
2023/12/02 04:36:48;;;;;;;45.08;15.55;;;;;;;-146.27;80.00;34843.25;5079568;28;20111;-69
2023/12/02 04:39:14;;;;;;;40.92;15.40;;;;;;;-146.27;80.06;34797.59;5093808;28;20065;-69
2023/12/02 04:41:40;;;;;;;40.50;15.25;;;;;;;-146.27;79.79;34823.41;5089029;28;20028;-71
2023/12/02 04:44:06;;;;;;;42.30;15.20;;;;;;;-146.27;79.63;34835.31;5097713;28;21076;-69
2023/12/02 04:46:31;;;;;;;44.40;14.52;;;;;;;-146.27;80.15;34841.28;5092224;28;21318;-70
2023/12/02 04:48:57;;;;;;;43.05;14.27;;;;;;;-146.27;80.10;34817.44;5090432;28;20114;-70
2023/12/02 04:51:22;;;;;;;40.40;14.85;;;;;;;-146.27;79.62;34811.50;5092201;28;20024;-68
2023/12/02 04:53:48;;;;;;;46.95;14.88;;;;;;;-146.27;80.29;34819.44;5092208;28;20063;-69
2023/12/02 04:56:13;;;;;;;36.50;14.57;;;;;;;-146.27;80.48;34807.53;5096131;28;20028;-69
2023/12/02 04:58:38;;;;;;;43.80;16.00;;;;;;;-146.27;80.64;34827.38;5102179;28;20026;-69
2023/12/02 05:01:04;;;;;;;44.58;15.23;;;;;;;-146.27;80.40;34819.44;5092079;28;20020;-69
2023/12/02 05:03:29;;;;;;;47.88;15.57;;;;;;;-146.27;80.52;34805.53;5088341;28;20046;-69
2023/12/02 05:05:55;;;;;;;50.38;15.63;;;;;;;-146.27;80.56;34803.56;5089458;28;20360;-69
2023/12/02 05:08:20;;;;;;;44.63;15.55;;;;;;;-146.27;80.73;34847.22;5080579;28;20023;-70
2023/12/02 05:10:46;;;;;;;40.05;14.70;;;;;;;-146.27;80.26;34841.28;5102162;28;20015;-68
2023/12/02 05:13:11;;;;;;;51.45;17.27;;;;;;;-146.27;79.61;34819.44;5101003;28;20504;-67
2023/12/02 05:15:36;;;;;;;43.88;13.93;;;;;;;-146.27;80.10;34813.47;5098751;28;20131;-67
2023/12/02 05:18:02;;;;;;;35.33;13.70;;;;;;;-146.27;80.38;34819.44;5092067;28;20503;-69
2023/12/02 05:20:28;;;;;;;42.00;15.27;;;;;;;-146.27;80.78;34841.28;5097865;28;20024;-71
2023/12/02 05:22:53;;;;;;;40.53;15.23;;;;;;;-146.27;80.72;34823.41;5076276;28;20032;-69
2023/12/02 05:25:19;;;;;;;43.58;16.30;;;;;;;-146.27;80.25;34839.28;5099701;28;20445;-70
2023/12/02 05:27:44;;;;;;;41.55;16.30;;;;;;;-146.27;80.32;34819.44;5100965;28;20051;-70
2023/12/02 05:30:12;;;;;;;42.10;14.75;;;;;;;-146.27;80.45;34815.47;5085757;28;20084;-71
2023/12/02 05:32:38;;;;;;;45.60;16.98;;;;;;;-146.27;80.63;34831.34;5098267;28;20397;-70
2023/12/02 05:35:04;;;;;;;43.85;15.48;;;;;;;-146.27;80.19;34843.25;5100957;28;20093;-70
2023/12/02 05:37:30;;;;;;;39.38;14.15;;;;;;;-146.27;80.51;34855.16;5094638;28;20468;-69
2023/12/02 05:39:56;;;;;;;43.80;14.68;;;;;;;-146.27;80.41;34797.59;5100029;28;20041;-67
2023/12/02 05:42:21;;;;;;;32.15;14.02;;;;;;;-146.27;80.17;34831.34;5102583;28;20081;-70
2023/12/02 05:44:47;;;;;;;42.97;15.73;;;;;;;-146.27;80.24;34851.19;5083012;28;20571;-69
2023/12/02 05:47:12;;;;;;;40.03;15.13;;;;;;;-146.27;80.29;34823.41;5106013;28;20080;-69
2023/12/02 05:49:40;;;;;;;40.50;15.73;;;;;;;-146.27;80.68;34831.34;5095220;28;20026;-69
2023/12/02 05:52:05;;;;;;;43.90;16.48;;;;;;;-146.27;80.57;34819.44;5097016;28;20051;-69
2023/12/02 05:54:31;;;;;;;46.33;16.80;;;;;;;-146.27;80.26;34823.41;5102706;28;20484;-69
2023/12/02 05:56:56;;;;;;;50.03;16.58;;;;;;;-146.27;80.51;34851.19;5095892;28;20111;-69
2023/12/02 05:59:21;;;;;;;40.38;15.98;;;;;;;-146.27;80.40;34863.09;5106595;28;20059;-69
2023/12/02 06:01:47;;;;;;;42.60;15.93;;;;;;;-146.27;80.37;34803.56;5090492;28;20051;-69
2023/12/02 06:04:12;;;;;;;35.88;14.65;;;;;;;-146.27;80.44;34859.13;5092618;28;20043;-69
2023/12/02 06:06:38;;;;;;;37.97;15.95;;;;;;;-146.27;80.86;34863.09;5090435;28;20031;-67
2023/12/02 06:09:03;;;;;;;47.53;16.40;;;;;;;-146.27;81.25;34886.91;5082471;28;20080;-70
2023/12/02 06:11:28;;;;;;;37.58;14.85;;;;;;;-146.27;81.52;34833.34;5098831;28;20016;-69
2023/12/02 06:13:54;;;;;;;38.63;15.20;;;;;;;-146.27;82.46;34819.44;5093345;28;20047;-69
2023/12/02 06:16:19;;;;;;;41.15;15.23;;;;;;;-146.27;81.45;34823.41;5091762;28;20067;-69
2023/12/02 06:18:44;;;;;;;42.15;15.70;;;;;;;-146.27;80.53;34857.16;5111301;28;20103;-69
2023/12/02 06:21:11;;;;;;;42.85;15.85;;;;;;;-146.27;80.17;34863.09;5095124;28;20020;-70
2023/12/02 06:23:37;;;;;;;44.65;16.15;;;;;;;-146.27;80.54;34855.16;5101664;28;20699;-70
2023/12/02 06:26:02;;;;;;;49.45;15.60;;;;;;;-146.27;81.27;34878.97;5078371;28;20086;-71
2023/12/02 06:28:28;;;;;;;42.05;15.55;;;;;;;-146.27;81.13;34861.13;5078001;28;20024;-71
2023/12/02 06:30:53;;;;;;;41.53;15.55;;;;;;;-146.27;80.67;34878.97;5071015;28;20030;-69
2023/12/02 06:33:18;;;;;;;34.58;14.75;;;;;;;-146.27;80.93;34857.16;5092403;28;20036;-68
2023/12/02 06:35:44;;;;;;;42.10;15.18;;;;;;;-146.27;80.89;34835.31;5088662;28;20456;-70
2023/12/02 06:38:10;;;;;;;46.58;15.93;;;;;;;-146.27;81.03;34853.19;5067941;28;20495;-68
2023/12/02 06:40:35;;;;;;;38.58;14.80;;;;;;;-146.27;81.13;34867.06;5086670;28;20030;-70
2023/12/02 06:43:00;;;;;;;40.35;14.27;;;;;;;-146.27;81.41;34827.38;5088141;28;20097;-70
2023/12/02 06:45:26;;;;;;;56.85;16.67;;;;;;;-146.27;81.75;34859.13;5095329;28;20027;-68
2023/12/02 06:47:51;;;;;;;49.38;16.83;;;;;;;-146.27;81.86;34841.28;5088716;28;20496;-70
2023/12/02 06:50:16;;;;;;;42.33;15.18;;;;;;;-146.27;81.41;34843.25;5078518;28;20481;-69
2023/12/02 06:52:42;;;;;;;42.25;15.50;;;;;;;-146.27;81.41;34819.44;5090944;28;20028;-69
2023/12/02 06:55:10;;;;;;;47.40;15.57;;;;;;;-146.27;81.11;34835.31;5089502;28;20482;-69
2023/12/02 06:57:36;;;;;;;44.70;15.93;;;;;;;-146.27;80.90;34829.34;5095007;28;20043;-70
2023/12/02 07:00:04;;;;;;;44.65;15.25;;;;;;;-146.27;80.92;34835.31;5092359;28;20066;-70
2023/12/02 07:02:30;;;;;;;39.45;15.40;;;;;;;-146.27;80.86;34863.09;5083229;28;20115;-69
2023/12/02 07:04:55;;;;;;;41.25;15.35;;;;;;;-146.27;81.19;34833.34;5096347;28;20539;-69
2023/12/02 07:07:21;;;;;;;34.70;14.43;;;;;;;-146.27;81.18;34849.22;5095948;28;20502;-70
2023/12/02 07:09:46;;;;;;;39.65;15.63;;;;;;;-146.27;81.24;34890.91;5091365;28;20351;-70
2023/12/02 07:12:11;;;;;;;44.28;16.35;;;;;;;-146.27;81.09;34869.06;5089214;28;20056;-69
2023/12/02 07:14:37;;;;;;;43.95;16.02;;;;;;;-146.27;81.49;34865.09;5075561;28;20024;-69
2023/12/02 07:17:04;;;;;;;42.85;16.30;;;;;;;-146.27;81.19;34867.06;5090429;28;20028;-69
2023/12/02 07:19:29;;;;;;;41.22;15.40;;;;;;;-146.27;81.36;34859.13;5090201;28;20039;-69
2023/12/02 07:21:55;;;;;;;42.45;15.48;;;;;;;-146.27;81.13;34823.41;5089163;28;20012;-69
2023/12/02 07:24:20;;;;;;;48.28;16.42;;;;;;;-146.27;81.17;34831.34;5092777;28;20058;-70
2023/12/02 07:26:46;;;;;;;48.22;16.95;;;;;;;-146.27;81.18;34841.28;5096385;28;20063;-68
2023/12/02 07:29:11;;;;;;;51.22;17.65;;;;;;;-146.27;80.83;34835.31;5090387;28;20028;-70
2023/12/02 07:31:36;;;;;;;44.42;16.85;;;;;;;-146.27;81.04;34823.41;5092528;28;20023;-71
2023/12/02 07:34:02;;;;;;;46.10;16.08;;;;;;;-146.27;81.02;34815.47;5097176;28;20031;-69
2023/12/02 07:36:27;;;;;;;37.60;16.20;;;;;;;-146.27;80.96;34839.28;5100606;28;20044;-68
2023/12/02 07:38:53;;;;;;;43.35;15.77;;;;;;;-146.27;80.89;34819.44;5099268;28;20107;-69
2023/12/02 07:41:18;;;;;;;42.60;16.25;;;;;;;-146.27;81.10;34803.56;5097126;28;20174;-71
2023/12/02 07:43:44;;;;;;;45.35;16.33;;;;;;;-146.27;81.24;34738.06;5101754;28;20024;-70
2023/12/02 07:46:09;;;;;;;47.17;18.20;;;;;;;-146.27;81.31;34849.22;5097329;28;20394;-70
2023/12/02 07:48:35;;;;;;;44.45;15.80;;;;;;;-146.27;81.60;34819.44;5091404;28;20020;-70
2023/12/02 07:51:04;;;;;;;47.38;16.45;;;;;;;-146.27;81.69;34823.41;5076973;28;20439;-70
2023/12/02 07:53:30;;;;;;;48.78;16.40;;;;;;;-146.27;81.84;34811.50;5092947;28;20032;-70
2023/12/02 07:55:55;;;;;;;46.97;16.65;;;;;;;-146.27;81.60;34799.59;5097040;28;20020;-73
2023/12/02 07:58:20;;;;;;;47.47;16.90;;;;;;;-146.27;81.96;34809.50;5096997;28;20031;-73
2023/12/02 08:00:46;;;;;;;48.22;17.42;;;;;;;-146.27;81.98;34797.59;5081621;28;20072;-71
2023/12/02 08:03:11;;;;;;;45.58;15.95;;;;;;;-146.27;82.04;34823.41;5097336;28;20024;-72
2023/12/02 08:05:36;;;;;;;45.72;17.45;;;;;;;-146.27;82.46;34791.66;5094385;28;20039;-71
2023/12/02 08:08:03;;;;;;;47.20;17.90;;;;;;;-146.27;82.19;34809.50;5093436;28;20028;-73
2023/12/02 08:10:29;;;;;;;50.40;17.83;;;;;;;-146.27;81.87;34811.50;5072119;28;20119;-72
2023/12/02 08:12:54;;;;;;;49.15;17.13;;;;;;;-146.27;81.98;34839.28;5078944;28;20067;-72
2023/12/02 08:15:20;;;;;;;42.80;16.50;;;;;;;-146.27;82.13;34797.59;5095075;28;20070;-73
2023/12/02 08:17:46;;;;;;;55.67;18.48;;;;;;;-146.27;82.29;34747.97;5076026;28;20093;-71
2023/12/02 08:20:12;;;;;;;51.30;18.13;;;;;;;-146.27;82.14;34777.75;5096350;28;20027;-72
2023/12/02 08:22:38;;;;;;;41.95;16.80;;;;;;;-146.27;82.45;34775.78;5079978;28;20028;-72
2023/12/02 08:25:03;;;;;;;45.90;17.95;;;;;;;-146.27;82.28;34773.78;5095046;28;20130;-71
2023/12/02 08:27:29;;;;;;;43.17;16.80;;;;;;;-146.27;82.05;34777.75;5093283;28;20035;-71
2023/12/02 08:29:54;;;;;;;51.38;18.98;;;;;;;-146.27;82.18;34763.84;5094237;28;20031;-73
2023/12/02 08:32:19;;;;;;;48.40;17.58;;;;;;;-146.27;82.38;34765.84;5100424;28;20051;-73
2023/12/02 08:34:45;;;;;;;52.80;18.55;;;;;;;-146.27;82.36;34771.81;5104596;28;20020;-72
2023/12/02 08:37:10;;;;;;;54.17;19.27;;;;;;;-146.27;82.16;34761.88;5108693;28;20023;-72
2023/12/02 08:39:37;;;;;;;49.42;17.67;;;;;;;-146.27;82.66;34781.72;5092965;28;20365;-74
2023/12/02 08:42:03;;;;;;;56.90;19.52;;;;;;;-146.27;82.67;34747.97;5089418;28;20016;-72
2023/12/02 08:44:28;;;;;;;53.55;18.17;;;;;;;-146.27;82.58;34740.03;5110614;28;20039;-71
2023/12/02 08:46:53;;;;;;;54.03;18.48;;;;;;;-146.27;82.55;34736.06;5096438;28;20027;-72
2023/12/02 08:49:19;;;;;;;55.75;18.90;;;;;;;-146.27;82.25;34712.25;5082831;28;20085;-71
2023/12/02 08:51:45;;;;;;;50.72;19.00;;;;;;;-146.27;82.36;34704.31;5102087;28;20027;-70
2023/12/02 08:54:11;;;;;;;49.97;18.58;;;;;;;-146.27;82.01;34690.41;5112211;28;20031;-71
2023/12/02 08:56:36;;;;;;;58.17;19.80;;;;;;;-146.27;82.91;34702.34;5113515;28;20384;-71
2023/12/02 08:59:02;;;;;;;48.78;19.10;;;;;;;-146.27;82.67;34686.44;5108544;28;20035;-70
2023/12/02 09:01:28;;;;;;;54.08;19.55;;;;;;;-146.27;81.98;34640.81;5111290;28;20031;-69
2023/12/02 09:03:54;;;;;;;54.67;17.98;;;;;;;-146.27;81.66;34660.66;5101974;28;20494;-70
2023/12/02 09:06:19;;;;;;;53.53;19.63;;;;;;;-146.27;81.33;34636.84;5101479;28;20397;-70
2023/12/02 09:08:45;;;;;;;50.55;17.60;;;;;;;-146.27;81.21;34640.81;5112197;28;20034;-70
2023/12/02 09:11:10;;;;;;;59.10;18.13;;;;;;;-146.27;81.27;34638.81;5100183;28;20027;-68
2023/12/02 09:13:48;;;;;;;53.40;18.75;;;;;;;-146.27;81.53;34662.63;5099598;28;20085;-70
2023/12/02 09:16:25;;;;;;;46.38;18.02;;;;;;;-146.27;81.09;34620.94;5093860;28;20457;-72
2023/12/02 09:18:50;;;;;;;47.30;17.77;;;;;;;-146.27;80.74;34607.06;5092995;28;20024;-70
2023/12/02 09:21:44;;;;;;;53.65;17.98;;;;;;;-146.27;81.90;34636.84;5091948;28;20432;-69
2023/12/02 09:24:36;;;;;;;57.72;19.58;;;;;;;-146.27;81.55;34613.00;5093988;28;20031;-70
2023/12/02 09:27:06;;;;;;;47.47;19.17;;;;;;;-146.27;81.56;34624.91;5108168;28;20040;-69
2023/12/02 09:29:35;;;;;;;46.20;18.85;;;;;;;-146.27;80.81;34616.97;5074203;28;20502;-70
2023/12/02 09:32:09;;;;;;;46.78;18.08;;;;;;;-146.27;80.45;34585.22;5096419;28;20102;-69
2023/12/02 09:34:40;;;;;;;48.25;18.42;;;;;;;-146.27;80.32;34597.13;5099772;28;20118;-71
2023/12/02 09:37:19;;;;;;;50.38;19.27;;;;;;;-146.27;79.83;34569.34;5106046;28;20369;-72
2023/12/02 09:40:19;;;;;;;50.80;17.65;;;;;;;-146.27;80.29;34567.38;5079424;28;20026;-71
2023/12/02 09:42:55;;;;;;;50.22;18.23;;;;;;;-146.27;80.44;34577.28;5071124;28;20051;-74
2023/12/02 09:45:35;;;;;;;50.00;18.00;;;;;;;-146.27;80.84;34597.13;5083961;28;20686;-72
2023/12/02 09:48:33;;;;;;;50.97;19.30;;;;;;;-146.27;80.24;34597.13;5077129;28;20034;-71
2023/12/02 09:51:11;;;;;;;51.75;18.42;;;;;;;-146.27;79.99;34583.25;5081362;28;20429;-71
2023/12/02 09:54:12;;;;;;;44.38;17.40;;;;;;;-146.27;80.23;34553.47;5083563;28;20062;-71
2023/12/02 09:56:41;;;;;;;45.25;17.70;;;;;;;-146.27;80.13;34543.53;5103239;28;20020;-71
2023/12/02 09:59:33;;;;;;;50.53;19.33;;;;;;;-146.27;79.85;34511.78;5090520;28;20031;-72
2023/12/02 10:02:07;;;;;;;47.97;18.95;;;;;;;-146.27;79.77;34577.28;5095710;28;20050;-71
2023/12/02 10:04:52;;;;;;;45.88;17.98;;;;;;;-146.27;79.87;34525.69;5101162;28;20547;-71
2023/12/02 10:07:55;;;;;;;45.72;18.35;;;;;;;-146.27;80.70;34529.66;5101963;28;20027;-70
2023/12/02 10:10:25;;;;;;;47.90;18.75;;;;;;;-146.27;80.69;34525.69;5095524;28;20561;-71
2023/12/02 10:13:07;;;;;;;47.05;18.52;;;;;;;-146.27;80.33;34499.88;5100396;28;20057;-70
2023/12/02 10:15:37;;;;;;;46.17;19.02;;;;;;;-146.27;79.94;34503.84;5098910;28;20430;-70
2023/12/02 10:18:13;;;;;;;51.30;17.75;;;;;;;-146.27;80.30;34529.66;5077602;28;20114;-71
2023/12/02 10:20:41;;;;;;;48.38;19.67;;;;;;;-146.27;80.10;34523.69;5096467;28;20383;-72
2023/12/02 10:23:19;;;;;;;49.13;19.77;;;;;;;-146.27;80.24;34501.88;5101912;28;20164;-71
2023/12/02 10:26:00;;;;;;;51.33;19.75;;;;;;;-146.27;79.88;34442.31;5078149;28;20047;-72
2023/12/02 10:28:46;;;;;;;46.88;18.75;;;;;;;-146.27;79.64;34489.97;5095658;28;20046;-71
2023/12/02 10:31:23;;;;;;;52.58;18.88;;;;;;;-146.27;79.71;34468.13;5091650;28;20119;-71
2023/12/02 10:34:06;;;;;;;45.92;18.65;;;;;;;-146.27;79.55;34497.91;5098162;27;20503;-72
2023/12/02 10:36:33;;;;;;;46.00;18.13;;;;;;;-146.27;80.66;34486.00;5084970;28;20393;-69
2023/12/02 10:39:07;;;;;;;46.70;20.27;;;;;;;-146.27;80.42;34482.03;5111881;27;20475;-69
2023/12/02 10:41:36;;;;;;;;;;;;;;;-146.27;80.83;34442.31;5101874;28;20610;-71
2023/12/02 10:44:07;;;;;;;47.13;19.60;;;;;;;-146.27;81.30;34323.25;5094921;28;19981;-70
2023/12/02 10:46:33;;;;;;;55.53;21.25;;;;;;;-146.27;80.04;34206.16;5095260;28;20043;-70
2023/12/02 10:49:00;;;;;;;46.30;19.80;;;;;;;-146.27;78.71;34122.81;5103136;28;20020;-71
2023/12/02 10:51:27;;;;;;;46.92;20.45;;;;;;;-146.27;75.38;34049.38;5097916;28;20103;-71
2023/12/02 10:53:57;;;;;;;46.13;19.45;;;;;;;-146.27;71.93;34087.09;5100597;28;20494;-70
2023/12/02 10:56:26;;;;;;;43.08;19.42;;;;;;;-146.27;71.41;34059.31;5097748;28;20529;-70
2023/12/02 10:58:53;;;;;;;41.13;19.13;;;;;;;-146.27;70.38;34106.94;5103688;28;20087;-71
2023/12/02 11:01:33;;;;;;;46.63;20.15;;;;;;;-146.27;70.63;34124.78;5098823;28;20020;-68
2023/12/02 11:04:06;;;;;;;40.85;18.25;;;;;;;-146.27;70.29;34073.19;5093800;28;20030;-69